sensor_id;sensor_type;location;lat;lon;timestamp;P1;durP1;ratioP1;P2;durP2;ratioP2
55090;SDS011;40985;53.180;5.800;2022-08-19T00:00:04;14.80;;;7.85;;
55090;SDS011;40985;53.180;5.800;2022-08-19T00:02:32;10.57;;;7.78;;
55090;SDS011;40985;53.180;5.800;2022-08-19T00:04:58;8.13;;;7.35;;
55090;SDS011;40985;53.180;5.800;2022-08-19T00:07:23;7.93;;;7.15;;
55090;SDS011;40985;53.180;5.800;2022-08-19T00:09:49;10.32;;;7.57;;
55090;SDS011;40985;53.180;5.800;2022-08-19T00:12:15;13.02;;;8.55;;
55090;SDS011;40985;53.180;5.800;2022-08-19T00:14:41;12.00;;;7.97;;
55090;SDS011;40985;53.180;5.800;2022-08-19T00:17:07;10.98;;;8.40;;
55090;SDS011;40985;53.180;5.800;2022-08-19T00:19:34;9.45;;;8.43;;
55090;SDS011;40985;53.180;5.800;2022-08-19T00:22:01;11.00;;;8.30;;
55090;SDS011;40985;53.180;5.800;2022-08-19T00:24:27;9.05;;;7.90;;
55090;SDS011;40985;53.180;5.800;2022-08-19T00:26:54;8.52;;;7.75;;
55090;SDS011;40985;53.180;5.800;2022-08-19T00:29:21;8.98;;;8.15;;
55090;SDS011;40985;53.180;5.800;2022-08-19T00:31:48;13.43;;;8.25;;
55090;SDS011;40985;53.180;5.800;2022-08-19T00:34:15;9.82;;;8.02;;
55090;SDS011;40985;53.180;5.800;2022-08-19T00:36:40;10.20;;;7.80;;
55090;SDS011;40985;53.180;5.800;2022-08-19T00:39:07;10.27;;;8.38;;
55090;SDS011;40985;53.180;5.800;2022-08-19T00:41:33;9.02;;;7.82;;
55090;SDS011;40985;53.180;5.800;2022-08-19T00:46:31;8.98;;;8.13;;
55090;SDS011;40985;53.180;5.800;2022-08-19T00:48:58;8.90;;;7.97;;
55090;SDS011;40985;53.180;5.800;2022-08-19T00:51:26;8.75;;;7.90;;
55090;SDS011;40985;53.180;5.800;2022-08-19T00:53:55;8.73;;;7.95;;
55090;SDS011;40985;53.180;5.800;2022-08-19T00:56:23;8.57;;;7.85;;
55090;SDS011;40985;53.180;5.800;2022-08-19T00:58:51;12.13;;;8.60;;
55090;SDS011;40985;53.180;5.800;2022-08-19T01:01:17;9.43;;;8.50;;
55090;SDS011;40985;53.180;5.800;2022-08-19T01:03:43;8.77;;;8.05;;
55090;SDS011;40985;53.180;5.800;2022-08-19T01:06:08;10.40;;;8.73;;
55090;SDS011;40985;53.180;5.800;2022-08-19T01:08:34;10.18;;;9.20;;
55090;SDS011;40985;53.180;5.800;2022-08-19T01:11:00;11.13;;;9.35;;
55090;SDS011;40985;53.180;5.800;2022-08-19T01:13:30;12.20;;;8.70;;
55090;SDS011;40985;53.180;5.800;2022-08-19T01:16:02;9.90;;;9.00;;
55090;SDS011;40985;53.180;5.800;2022-08-19T01:18:32;9.93;;;8.90;;
55090;SDS011;40985;53.180;5.800;2022-08-19T01:21:05;12.68;;;10.23;;
55090;SDS011;40985;53.180;5.800;2022-08-19T01:23:36;12.35;;;9.90;;
55090;SDS011;40985;53.180;5.800;2022-08-19T01:26:09;10.93;;;9.93;;
55090;SDS011;40985;53.180;5.800;2022-08-19T01:28:45;11.32;;;10.25;;
55090;SDS011;40985;53.180;5.800;2022-08-19T01:31:17;10.18;;;9.05;;
55090;SDS011;40985;53.180;5.800;2022-08-19T01:33:47;11.00;;;9.90;;
55090;SDS011;40985;53.180;5.800;2022-08-19T01:36:15;10.90;;;9.80;;
55090;SDS011;40985;53.180;5.800;2022-08-19T01:38:48;10.77;;;9.27;;
55090;SDS011;40985;53.180;5.800;2022-08-19T01:41:14;10.30;;;9.30;;
55090;SDS011;40985;53.180;5.800;2022-08-19T01:43:42;11.40;;;9.85;;
55090;SDS011;40985;53.180;5.800;2022-08-19T01:46:08;13.25;;;9.63;;
55090;SDS011;40985;53.180;5.800;2022-08-19T01:48:34;13.70;;;9.30;;
55090;SDS011;40985;53.180;5.800;2022-08-19T01:51:02;10.82;;;9.77;;
55090;SDS011;40985;53.180;5.800;2022-08-19T01:53:28;11.40;;;10.20;;
55090;SDS011;40985;53.180;5.800;2022-08-19T01:55:54;11.05;;;9.95;;
55090;SDS011;40985;53.180;5.800;2022-08-19T01:58:21;10.57;;;9.50;;
55090;SDS011;40985;53.180;5.800;2022-08-19T02:00:49;12.63;;;9.88;;
55090;SDS011;40985;53.180;5.800;2022-08-19T02:03:15;10.27;;;8.85;;
55090;SDS011;40985;53.180;5.800;2022-08-19T02:05:42;11.68;;;9.00;;
55090;SDS011;40985;53.180;5.800;2022-08-19T02:08:09;12.15;;;10.20;;
55090;SDS011;40985;53.180;5.800;2022-08-19T02:10:38;11.50;;;8.80;;
55090;SDS011;40985;53.180;5.800;2022-08-19T02:13:08;9.70;;;8.75;;
55090;SDS011;40985;53.180;5.800;2022-08-19T02:15:34;10.27;;;9.07;;
55090;SDS011;40985;53.180;5.800;2022-08-19T02:18:00;10.90;;;9.02;;
55090;SDS011;40985;53.180;5.800;2022-08-19T02:20:26;11.60;;;10.20;;
55090;SDS011;40985;53.180;5.800;2022-08-19T02:22:51;11.00;;;9.90;;
55090;SDS011;40985;53.180;5.800;2022-08-19T02:25:17;13.32;;;10.43;;
55090;SDS011;40985;53.180;5.800;2022-08-19T02:27:43;11.32;;;10.23;;
55090;SDS011;40985;53.180;5.800;2022-08-19T02:30:11;12.70;;;11.23;;
55090;SDS011;40985;53.180;5.800;2022-08-19T02:32:41;11.98;;;10.75;;
55090;SDS011;40985;53.180;5.800;2022-08-19T02:35:07;12.60;;;11.27;;
55090;SDS011;40985;53.180;5.800;2022-08-19T02:37:33;14.75;;;11.98;;
55090;SDS011;40985;53.180;5.800;2022-08-19T02:40:18;12.50;;;11.07;;
55090;SDS011;40985;53.180;5.800;2022-08-19T02:42:44;12.43;;;11.13;;
55090;SDS011;40985;53.180;5.800;2022-08-19T02:45:11;12.43;;;10.75;;
55090;SDS011;40985;53.180;5.800;2022-08-19T02:47:38;12.98;;;11.25;;
55090;SDS011;40985;53.180;5.800;2022-08-19T02:50:05;13.68;;;11.38;;
55090;SDS011;40985;53.180;5.800;2022-08-19T02:52:31;15.48;;;11.70;;
55090;SDS011;40985;53.180;5.800;2022-08-19T02:54:58;16.85;;;10.77;;
55090;SDS011;40985;53.180;5.800;2022-08-19T02:57:25;15.13;;;11.95;;
55090;SDS011;40985;53.180;5.800;2022-08-19T02:59:51;14.48;;;12.07;;
55090;SDS011;40985;53.180;5.800;2022-08-19T03:02:17;15.50;;;12.82;;
55090;SDS011;40985;53.180;5.800;2022-08-19T03:04:42;13.60;;;12.20;;
55090;SDS011;40985;53.180;5.800;2022-08-19T03:07:08;14.00;;;10.65;;
55090;SDS011;40985;53.180;5.800;2022-08-19T03:09:38;16.35;;;12.30;;
55090;SDS011;40985;53.180;5.800;2022-08-19T03:12:04;16.73;;;12.57;;
55090;SDS011;40985;53.180;5.800;2022-08-19T03:14:31;12.95;;;11.55;;
55090;SDS011;40985;53.180;5.800;2022-08-19T03:16:58;16.88;;;11.50;;
55090;SDS011;40985;53.180;5.800;2022-08-19T03:19:23;14.27;;;11.60;;
55090;SDS011;40985;53.180;5.800;2022-08-19T03:21:49;12.85;;;11.40;;
55090;SDS011;40985;53.180;5.800;2022-08-19T03:24:17;14.43;;;12.02;;
55090;SDS011;40985;53.180;5.800;2022-08-19T03:26:45;13.75;;;11.13;;
55090;SDS011;40985;53.180;5.800;2022-08-19T03:29:14;13.43;;;10.48;;
55090;SDS011;40985;53.180;5.800;2022-08-19T03:31:41;12.10;;;10.65;;
55090;SDS011;40985;53.180;5.800;2022-08-19T03:34:08;15.10;;;10.98;;
55090;SDS011;40985;53.180;5.800;2022-08-19T03:36:36;13.48;;;11.35;;
55090;SDS011;40985;53.180;5.800;2022-08-19T03:39:03;14.07;;;11.18;;
55090;SDS011;40985;53.180;5.800;2022-08-19T03:41:30;12.90;;;11.63;;
55090;SDS011;40985;53.180;5.800;2022-08-19T03:44:01;11.00;;;9.77;;
55090;SDS011;40985;53.180;5.800;2022-08-19T03:46:29;11.55;;;10.35;;
55090;SDS011;40985;53.180;5.800;2022-08-19T03:48:58;11.50;;;10.32;;
55090;SDS011;40985;53.180;5.800;2022-08-19T03:51:29;12.82;;;11.32;;
55090;SDS011;40985;53.180;5.800;2022-08-19T03:53:58;15.60;;;11.27;;
55090;SDS011;40985;53.180;5.800;2022-08-19T03:56:25;12.52;;;11.23;;
55090;SDS011;40985;53.180;5.800;2022-08-19T03:58:53;17.83;;;11.43;;
55090;SDS011;40985;53.180;5.800;2022-08-19T04:01:21;12.75;;;11.32;;
55090;SDS011;40985;53.180;5.800;2022-08-19T04:03:48;12.00;;;10.77;;
55090;SDS011;40985;53.180;5.800;2022-08-19T04:06:18;15.35;;;11.13;;
55090;SDS011;40985;53.180;5.800;2022-08-19T04:08:46;14.32;;;10.27;;
55090;SDS011;40985;53.180;5.800;2022-08-19T04:11:14;14.43;;;11.38;;
55090;SDS011;40985;53.180;5.800;2022-08-19T04:13:42;16.35;;;11.38;;
55090;SDS011;40985;53.180;5.800;2022-08-19T04:16:11;18.42;;;11.50;;
55090;SDS011;40985;53.180;5.800;2022-08-19T04:18:37;15.52;;;12.75;;
55090;SDS011;40985;53.180;5.800;2022-08-19T04:21:04;14.90;;;11.15;;
55090;SDS011;40985;53.180;5.800;2022-08-19T04:23:31;13.02;;;11.38;;
55090;SDS011;40985;53.180;5.800;2022-08-19T04:25:57;12.15;;;10.55;;
55090;SDS011;40985;53.180;5.800;2022-08-19T04:28:23;13.38;;;11.95;;
55090;SDS011;40985;53.180;5.800;2022-08-19T04:30:50;15.57;;;12.77;;
55090;SDS011;40985;53.180;5.800;2022-08-19T04:33:19;16.02;;;12.45;;
55090;SDS011;40985;53.180;5.800;2022-08-19T04:35:48;16.48;;;12.80;;
55090;SDS011;40985;53.180;5.800;2022-08-19T04:38:16;16.70;;;13.10;;
55090;SDS011;40985;53.180;5.800;2022-08-19T04:40:43;18.42;;;14.38;;
55090;SDS011;40985;53.180;5.800;2022-08-19T04:43:29;18.85;;;14.65;;
55090;SDS011;40985;53.180;5.800;2022-08-19T04:45:55;20.05;;;13.98;;
55090;SDS011;40985;53.180;5.800;2022-08-19T04:48:21;19.35;;;14.48;;
55090;SDS011;40985;53.180;5.800;2022-08-19T04:50:55;16.73;;;13.70;;
55090;SDS011;40985;53.180;5.800;2022-08-19T04:53:30;24.02;;;15.18;;
55090;SDS011;40985;53.180;5.800;2022-08-19T04:56:03;18.33;;;13.98;;
55090;SDS011;40985;53.180;5.800;2022-08-19T04:58:32;19.27;;;13.48;;
55090;SDS011;40985;53.180;5.800;2022-08-19T05:00:58;21.23;;;14.32;;
55090;SDS011;40985;53.180;5.800;2022-08-19T05:03:25;18.38;;;14.35;;
55090;SDS011;40985;53.180;5.800;2022-08-19T05:05:51;18.42;;;14.05;;
55090;SDS011;40985;53.180;5.800;2022-08-19T05:08:18;17.80;;;13.95;;
55090;SDS011;40985;53.180;5.800;2022-08-19T05:10:47;16.45;;;12.98;;
55090;SDS011;40985;53.180;5.800;2022-08-19T05:13:15;18.65;;;14.18;;
55090;SDS011;40985;53.180;5.800;2022-08-19T05:15:42;21.00;;;15.68;;
55090;SDS011;40985;53.180;5.800;2022-08-19T05:18:08;17.90;;;14.23;;
55090;SDS011;40985;53.180;5.800;2022-08-19T05:20:53;18.20;;;14.88;;
55090;SDS011;40985;53.180;5.800;2022-08-19T05:23:37;23.42;;;16.33;;
55090;SDS011;40985;53.180;5.800;2022-08-19T05:26:03;21.17;;;16.48;;
55090;SDS011;40985;53.180;5.800;2022-08-19T05:28:29;20.27;;;16.05;;
55090;SDS011;40985;53.180;5.800;2022-08-19T05:30:55;23.60;;;17.13;;
55090;SDS011;40985;53.180;5.800;2022-08-19T05:33:22;28.20;;;18.50;;
55090;SDS011;40985;53.180;5.800;2022-08-19T05:35:49;29.95;;;18.48;;
55090;SDS011;40985;53.180;5.800;2022-08-19T05:38:16;34.95;;;19.73;;
55090;SDS011;40985;53.180;5.800;2022-08-19T05:40:42;31.45;;;20.23;;
55090;SDS011;40985;53.180;5.800;2022-08-19T05:43:11;31.60;;;18.92;;
55090;SDS011;40985;53.180;5.800;2022-08-19T05:45:40;38.75;;;21.80;;
55090;SDS011;40985;53.180;5.800;2022-08-19T05:48:07;32.85;;;21.30;;
55090;SDS011;40985;53.180;5.800;2022-08-19T05:50:36;30.17;;;19.33;;
55090;SDS011;40985;53.180;5.800;2022-08-19T05:53:03;33.22;;;20.58;;
55090;SDS011;40985;53.180;5.800;2022-08-19T05:55:29;31.15;;;21.02;;
55090;SDS011;40985;53.180;5.800;2022-08-19T05:57:55;32.65;;;21.02;;
55090;SDS011;40985;53.180;5.800;2022-08-19T06:00:20;33.45;;;21.73;;
55090;SDS011;40985;53.180;5.800;2022-08-19T06:02:46;33.50;;;21.65;;
55090;SDS011;40985;53.180;5.800;2022-08-19T06:05:12;34.15;;;21.75;;
55090;SDS011;40985;53.180;5.800;2022-08-19T06:07:38;32.53;;;22.67;;
55090;SDS011;40985;53.180;5.800;2022-08-19T06:10:05;32.72;;;21.73;;
55090;SDS011;40985;53.180;5.800;2022-08-19T06:12:32;33.60;;;21.33;;
55090;SDS011;40985;53.180;5.800;2022-08-19T06:15:10;37.65;;;22.38;;
55090;SDS011;40985;53.180;5.800;2022-08-19T06:17:37;35.50;;;22.73;;
55090;SDS011;40985;53.180;5.800;2022-08-19T06:20:03;32.63;;;21.90;;
55090;SDS011;40985;53.180;5.800;2022-08-19T06:22:31;33.83;;;21.70;;
55090;SDS011;40985;53.180;5.800;2022-08-19T06:25:10;37.47;;;23.75;;
55090;SDS011;40985;53.180;5.800;2022-08-19T06:27:37;33.65;;;21.90;;
55090;SDS011;40985;53.180;5.800;2022-08-19T06:30:03;34.65;;;22.55;;
55090;SDS011;40985;53.180;5.800;2022-08-19T06:32:30;35.63;;;22.20;;
55090;SDS011;40985;53.180;5.800;2022-08-19T06:34:56;34.88;;;21.73;;
55090;SDS011;40985;53.180;5.800;2022-08-19T06:37:22;32.15;;;21.50;;
55090;SDS011;40985;53.180;5.800;2022-08-19T06:39:48;31.33;;;21.67;;
55090;SDS011;40985;53.180;5.800;2022-08-19T06:42:14;34.28;;;22.80;;
55090;SDS011;40985;53.180;5.800;2022-08-19T06:44:41;33.72;;;21.90;;
55090;SDS011;40985;53.180;5.800;2022-08-19T06:47:09;34.67;;;21.65;;
55090;SDS011;40985;53.180;5.800;2022-08-19T06:49:37;36.70;;;23.27;;
55090;SDS011;40985;53.180;5.800;2022-08-19T06:52:03;33.92;;;22.73;;
55090;SDS011;40985;53.180;5.800;2022-08-19T06:54:29;30.63;;;22.77;;
55090;SDS011;40985;53.180;5.800;2022-08-19T06:56:56;30.77;;;21.58;;
55090;SDS011;40985;53.180;5.800;2022-08-19T06:59:29;30.92;;;23.05;;
55090;SDS011;40985;53.180;5.800;2022-08-19T07:01:58;31.58;;;22.63;;
55090;SDS011;40985;53.180;5.800;2022-08-19T07:04:29;29.55;;;22.08;;
55090;SDS011;40985;53.180;5.800;2022-08-19T07:09:27;28.05;;;22.23;;
55090;SDS011;40985;53.180;5.800;2022-08-19T07:11:53;28.17;;;22.08;;
55090;SDS011;40985;53.180;5.800;2022-08-19T07:14:21;28.45;;;22.23;;
55090;SDS011;40985;53.180;5.800;2022-08-19T07:16:50;25.30;;;21.75;;
55090;SDS011;40985;53.180;5.800;2022-08-19T07:19:17;25.88;;;22.40;;
55090;SDS011;40985;53.180;5.800;2022-08-19T07:21:44;29.65;;;21.92;;
55090;SDS011;40985;53.180;5.800;2022-08-19T07:24:11;33.78;;;21.90;;
55090;SDS011;40985;53.180;5.800;2022-08-19T07:26:38;27.23;;;22.48;;
55090;SDS011;40985;53.180;5.800;2022-08-19T07:29:05;26.80;;;22.98;;
55090;SDS011;40985;53.180;5.800;2022-08-19T07:31:31;29.98;;;23.52;;
55090;SDS011;40985;53.180;5.800;2022-08-19T07:34:01;26.45;;;22.02;;
55090;SDS011;40985;53.180;5.800;2022-08-19T07:36:31;26.83;;;23.02;;
55090;SDS011;40985;53.180;5.800;2022-08-19T07:39:00;27.80;;;23.92;;
55090;SDS011;40985;53.180;5.800;2022-08-19T07:41:28;29.35;;;23.40;;
55090;SDS011;40985;53.180;5.800;2022-08-19T07:43:55;26.83;;;22.35;;
55090;SDS011;40985;53.180;5.800;2022-08-19T07:46:22;28.50;;;24.63;;
55090;SDS011;40985;53.180;5.800;2022-08-19T07:48:48;26.20;;;23.20;;
55090;SDS011;40985;53.180;5.800;2022-08-19T07:51:17;27.88;;;24.10;;
55090;SDS011;40985;53.180;5.800;2022-08-19T07:53:45;27.90;;;22.45;;
55090;SDS011;40985;53.180;5.800;2022-08-19T07:56:12;29.48;;;22.92;;
55090;SDS011;40985;53.180;5.800;2022-08-19T07:58:40;28.77;;;24.75;;
55090;SDS011;40985;53.180;5.800;2022-08-19T08:01:09;29.85;;;25.48;;
55090;SDS011;40985;53.180;5.800;2022-08-19T08:03:36;28.58;;;23.77;;
55090;SDS011;40985;53.180;5.800;2022-08-19T08:06:21;27.17;;;24.30;;
55090;SDS011;40985;53.180;5.800;2022-08-19T08:09:06;29.95;;;24.58;;
55090;SDS011;40985;53.180;5.800;2022-08-19T08:11:49;29.73;;;26.08;;
55090;SDS011;40985;53.180;5.800;2022-08-19T08:14:28;31.40;;;26.05;;
55090;SDS011;40985;53.180;5.800;2022-08-19T08:16:56;37.47;;;28.27;;
55090;SDS011;40985;53.180;5.800;2022-08-19T08:19:23;36.78;;;31.52;;
55090;SDS011;40985;53.180;5.800;2022-08-19T08:21:50;32.75;;;29.35;;
55090;SDS011;40985;53.180;5.800;2022-08-19T08:24:17;37.60;;;31.98;;
55090;SDS011;40985;53.180;5.800;2022-08-19T08:26:43;33.55;;;30.05;;
55090;SDS011;40985;53.180;5.800;2022-08-19T08:29:10;33.45;;;30.08;;
55090;SDS011;40985;53.180;5.800;2022-08-19T08:31:37;32.10;;;28.67;;
55090;SDS011;40985;53.180;5.800;2022-08-19T08:34:05;32.60;;;28.60;;
55090;SDS011;40985;53.180;5.800;2022-08-19T08:36:31;32.33;;;28.80;;
55090;SDS011;40985;53.180;5.800;2022-08-19T08:38:59;32.78;;;26.75;;
55090;SDS011;40985;53.180;5.800;2022-08-19T08:44:29;31.08;;;26.20;;
55090;SDS011;40985;53.180;5.800;2022-08-19T08:47:05;30.50;;;27.20;;
55090;SDS011;40985;53.180;5.800;2022-08-19T08:49:45;31.98;;;26.90;;
55090;SDS011;40985;53.180;5.800;2022-08-19T08:52:29;31.75;;;26.73;;
55090;SDS011;40985;53.180;5.800;2022-08-19T08:55:05;30.45;;;25.20;;
55090;SDS011;40985;53.180;5.800;2022-08-19T08:57:36;27.45;;;22.77;;
55090;SDS011;40985;53.180;5.800;2022-08-19T09:00:21;26.55;;;21.65;;
55090;SDS011;40985;53.180;5.800;2022-08-19T09:02:56;21.50;;;19.30;;
55090;SDS011;40985;53.180;5.800;2022-08-19T09:05:23;23.88;;;21.30;;
55090;SDS011;40985;53.180;5.800;2022-08-19T09:10:32;23.77;;;20.15;;
55090;SDS011;40985;53.180;5.800;2022-08-19T09:16:03;22.10;;;18.05;;
55090;SDS011;40985;53.180;5.800;2022-08-19T09:18:45;21.85;;;18.90;;
55090;SDS011;40985;53.180;5.800;2022-08-19T09:21:17;21.98;;;18.08;;
55090;SDS011;40985;53.180;5.800;2022-08-19T09:23:43;21.67;;;19.38;;
55090;SDS011;40985;53.180;5.800;2022-08-19T09:26:10;21.17;;;16.90;;
55090;SDS011;40985;53.180;5.800;2022-08-19T09:28:40;21.65;;;14.60;;
55090;SDS011;40985;53.180;5.800;2022-08-19T09:31:09;16.05;;;13.82;;
55090;SDS011;40985;53.180;5.800;2022-08-19T09:33:36;14.65;;;12.63;;
55090;SDS011;40985;53.180;5.800;2022-08-19T09:36:06;15.82;;;13.00;;
55090;SDS011;40985;53.180;5.800;2022-08-19T09:38:35;15.13;;;13.55;;
55090;SDS011;40985;53.180;5.800;2022-08-19T09:41:02;16.77;;;15.02;;
55090;SDS011;40985;53.180;5.800;2022-08-19T09:43:30;17.25;;;14.73;;
55090;SDS011;40985;53.180;5.800;2022-08-19T09:45:57;17.88;;;14.45;;
55090;SDS011;40985;53.180;5.800;2022-08-19T09:48:23;21.70;;;15.45;;
55090;SDS011;40985;53.180;5.800;2022-08-19T09:50:48;18.92;;;14.52;;
55090;SDS011;40985;53.180;5.800;2022-08-19T09:53:16;17.77;;;13.85;;
55090;SDS011;40985;53.180;5.800;2022-08-19T09:55:44;14.43;;;11.63;;
55090;SDS011;40985;53.180;5.800;2022-08-19T09:58:10;18.63;;;13.52;;
55090;SDS011;40985;53.180;5.800;2022-08-19T10:00:37;16.92;;;14.60;;
55090;SDS011;40985;53.180;5.800;2022-08-19T10:03:03;17.27;;;14.43;;
55090;SDS011;40985;53.180;5.800;2022-08-19T10:05:28;15.23;;;12.77;;
55090;SDS011;40985;53.180;5.800;2022-08-19T10:08:13;16.15;;;14.45;;
55090;SDS011;40985;53.180;5.800;2022-08-19T10:10:41;13.10;;;11.70;;
55090;SDS011;40985;53.180;5.800;2022-08-19T10:13:09;16.40;;;12.27;;
55090;SDS011;40985;53.180;5.800;2022-08-19T10:15:35;15.05;;;11.55;;
55090;SDS011;40985;53.180;5.800;2022-08-19T10:18:04;12.43;;;11.23;;
55090;SDS011;40985;53.180;5.800;2022-08-19T10:20:30;15.57;;;11.73;;
55090;SDS011;40985;53.180;5.800;2022-08-19T10:22:56;12.98;;;10.75;;
55090;SDS011;40985;53.180;5.800;2022-08-19T10:25:24;17.85;;;12.13;;
55090;SDS011;40985;53.180;5.800;2022-08-19T10:27:51;12.13;;;9.57;;
55090;SDS011;40985;53.180;5.800;2022-08-19T10:30:17;13.13;;;10.68;;
55090;SDS011;40985;53.180;5.800;2022-08-19T10:32:44;13.30;;;11.27;;
55090;SDS011;40985;53.180;5.800;2022-08-19T10:35:11;16.63;;;12.32;;
55090;SDS011;40985;53.180;5.800;2022-08-19T10:37:37;14.52;;;12.65;;
55090;SDS011;40985;53.180;5.800;2022-08-19T10:40:07;15.77;;;10.57;;
55090;SDS011;40985;53.180;5.800;2022-08-19T10:42:36;13.15;;;9.15;;
55090;SDS011;40985;53.180;5.800;2022-08-19T10:45:03;16.15;;;10.18;;
55090;SDS011;40985;53.180;5.800;2022-08-19T10:47:31;11.95;;;8.70;;
55090;SDS011;40985;53.180;5.800;2022-08-19T10:49:58;13.55;;;9.15;;
55090;SDS011;40985;53.180;5.800;2022-08-19T10:52:44;13.55;;;10.05;;
55090;SDS011;40985;53.180;5.800;2022-08-19T10:55:11;13.52;;;9.60;;
55090;SDS011;40985;53.180;5.800;2022-08-19T10:57:56;13.93;;;8.88;;
55090;SDS011;40985;53.180;5.800;2022-08-19T11:00:22;10.93;;;8.18;;
55090;SDS011;40985;53.180;5.800;2022-08-19T11:02:48;8.52;;;7.55;;
55090;SDS011;40985;53.180;5.800;2022-08-19T11:05:15;10.27;;;8.77;;
55090;SDS011;40985;53.180;5.800;2022-08-19T11:07:42;12.20;;;8.73;;
55090;SDS011;40985;53.180;5.800;2022-08-19T11:10:10;14.52;;;9.63;;
55090;SDS011;40985;53.180;5.800;2022-08-19T11:12:38;12.90;;;9.52;;
55090;SDS011;40985;53.180;5.800;2022-08-19T11:15:08;17.05;;;10.10;;
55090;SDS011;40985;53.180;5.800;2022-08-19T11:17:36;13.52;;;9.40;;
55090;SDS011;40985;53.180;5.800;2022-08-19T11:20:05;11.20;;;9.43;;
55090;SDS011;40985;53.180;5.800;2022-08-19T11:22:32;11.25;;;9.40;;
55090;SDS011;40985;53.180;5.800;2022-08-19T11:24:57;13.00;;;8.65;;
55090;SDS011;40985;53.180;5.800;2022-08-19T11:27:23;10.93;;;8.02;;
55090;SDS011;40985;53.180;5.800;2022-08-19T11:29:49;8.52;;;7.65;;
55090;SDS011;40985;53.180;5.800;2022-08-19T11:32:14;10.32;;;5.75;;
55090;SDS011;40985;53.180;5.800;2022-08-19T11:34:41;12.60;;;6.68;;
55090;SDS011;40985;53.180;5.800;2022-08-19T11:37:07;9.13;;;6.07;;
55090;SDS011;40985;53.180;5.800;2022-08-19T11:39:34;8.02;;;5.75;;
55090;SDS011;40985;53.180;5.800;2022-08-19T11:42:02;11.18;;;6.50;;
55090;SDS011;40985;53.180;5.800;2022-08-19T11:44:49;7.63;;;6.55;;
55090;SDS011;40985;53.180;5.800;2022-08-19T11:47:15;17.17;;;8.48;;
55090;SDS011;40985;53.180;5.800;2022-08-19T11:49:41;11.07;;;8.55;;
55090;SDS011;40985;53.180;5.800;2022-08-19T11:52:07;9.60;;;7.68;;
55090;SDS011;40985;53.180;5.800;2022-08-19T11:54:33;9.73;;;7.97;;
55090;SDS011;40985;53.180;5.800;2022-08-19T11:56:59;11.75;;;8.07;;
55090;SDS011;40985;53.180;5.800;2022-08-19T11:59:27;9.13;;;7.93;;
55090;SDS011;40985;53.180;5.800;2022-08-19T12:01:54;11.45;;;7.63;;
55090;SDS011;40985;53.180;5.800;2022-08-19T12:04:20;14.57;;;8.38;;
55090;SDS011;40985;53.180;5.800;2022-08-19T12:06:46;18.10;;;7.32;;
55090;SDS011;40985;53.180;5.800;2022-08-19T12:09:12;11.35;;;7.10;;
55090;SDS011;40985;53.180;5.800;2022-08-19T12:11:39;11.50;;;7.38;;
55090;SDS011;40985;53.180;5.800;2022-08-19T12:14:06;11.68;;;7.75;;
55090;SDS011;40985;53.180;5.800;2022-08-19T12:16:34;9.02;;;7.38;;
55090;SDS011;40985;53.180;5.800;2022-08-19T12:19:00;7.85;;;7.05;;
55090;SDS011;40985;53.180;5.800;2022-08-19T12:21:29;10.13;;;6.65;;
55090;SDS011;40985;53.180;5.800;2022-08-19T12:23:56;7.57;;;6.70;;
55090;SDS011;40985;53.180;5.800;2022-08-19T12:26:25;9.98;;;5.82;;
55090;SDS011;40985;53.180;5.800;2022-08-19T12:28:52;8.55;;;5.97;;
55090;SDS011;40985;53.180;5.800;2022-08-19T12:31:18;10.70;;;7.13;;
55090;SDS011;40985;53.180;5.800;2022-08-19T12:33:44;8.98;;;6.75;;
55090;SDS011;40985;53.180;5.800;2022-08-19T12:36:11;9.77;;;7.63;;
55090;SDS011;40985;53.180;5.800;2022-08-19T12:38:40;9.90;;;6.30;;
55090;SDS011;40985;53.180;5.800;2022-08-19T12:41:07;9.32;;;7.28;;
55090;SDS011;40985;53.180;5.800;2022-08-19T12:43:35;7.68;;;6.93;;
55090;SDS011;40985;53.180;5.800;2022-08-19T12:46:03;7.20;;;6.50;;
55090;SDS011;40985;53.180;5.800;2022-08-19T12:48:30;11.70;;;7.28;;
55090;SDS011;40985;53.180;5.800;2022-08-19T12:50:56;9.45;;;7.35;;
55090;SDS011;40985;53.180;5.800;2022-08-19T12:53:22;10.05;;;7.70;;
55090;SDS011;40985;53.180;5.800;2022-08-19T12:55:54;7.75;;;6.93;;
55090;SDS011;40985;53.180;5.800;2022-08-19T12:58:21;10.27;;;7.38;;
55090;SDS011;40985;53.180;5.800;2022-08-19T13:00:47;10.73;;;8.57;;
55090;SDS011;40985;53.180;5.800;2022-08-19T13:03:14;9.13;;;7.00;;
55090;SDS011;40985;53.180;5.800;2022-08-19T13:05:40;10.95;;;7.22;;
55090;SDS011;40985;53.180;5.800;2022-08-19T13:08:06;9.82;;;6.75;;
55090;SDS011;40985;53.180;5.800;2022-08-19T13:10:33;10.55;;;7.93;;
55090;SDS011;40985;53.180;5.800;2022-08-19T13:13:00;8.43;;;6.85;;
55090;SDS011;40985;53.180;5.800;2022-08-19T13:15:28;11.10;;;7.00;;
55090;SDS011;40985;53.180;5.800;2022-08-19T13:17:56;11.30;;;8.93;;
55090;SDS011;40985;53.180;5.800;2022-08-19T13:20:22;7.65;;;6.25;;
55090;SDS011;40985;53.180;5.800;2022-08-19T13:22:49;8.02;;;6.68;;
55090;SDS011;40985;53.180;5.800;2022-08-19T13:25:15;11.00;;;6.47;;
55090;SDS011;40985;53.180;5.800;2022-08-19T13:27:44;8.00;;;5.95;;
55090;SDS011;40985;53.180;5.800;2022-08-19T13:30:10;7.40;;;6.40;;
55090;SDS011;40985;53.180;5.800;2022-08-19T13:32:55;8.30;;;6.68;;
55090;SDS011;40985;53.180;5.800;2022-08-19T13:35:41;9.57;;;7.47;;
55090;SDS011;40985;53.180;5.800;2022-08-19T13:38:07;8.20;;;6.72;;
55090;SDS011;40985;53.180;5.800;2022-08-19T13:40:33;7.40;;;5.97;;
55090;SDS011;40985;53.180;5.800;2022-08-19T13:42:59;6.63;;;3.70;;
55090;SDS011;40985;53.180;5.800;2022-08-19T13:45:26;6.80;;;5.05;;
55090;SDS011;40985;53.180;5.800;2022-08-19T13:47:54;7.70;;;6.22;;
55090;SDS011;40985;53.180;5.800;2022-08-19T13:50:22;6.28;;;4.95;;
55090;SDS011;40985;53.180;5.800;2022-08-19T13:52:52;8.00;;;5.57;;
55090;SDS011;40985;53.180;5.800;2022-08-19T13:55:19;8.68;;;6.65;;
55090;SDS011;40985;53.180;5.800;2022-08-19T13:57:45;6.22;;;5.25;;
55090;SDS011;40985;53.180;5.800;2022-08-19T14:00:15;6.88;;;4.97;;
55090;SDS011;40985;53.180;5.800;2022-08-19T14:02:43;6.18;;;5.05;;
55090;SDS011;40985;53.180;5.800;2022-08-19T14:05:11;5.07;;;4.55;;
55090;SDS011;40985;53.180;5.800;2022-08-19T14:07:38;5.00;;;4.25;;
55090;SDS011;40985;53.180;5.800;2022-08-19T14:10:04;10.95;;;5.75;;
55090;SDS011;40985;53.180;5.800;2022-08-19T14:12:31;7.82;;;5.90;;
55090;SDS011;40985;53.180;5.800;2022-08-19T14:14:58;6.20;;;5.15;;
55090;SDS011;40985;53.180;5.800;2022-08-19T14:17:24;6.65;;;3.88;;
55090;SDS011;40985;53.180;5.800;2022-08-19T14:19:55;3.78;;;3.10;;
55090;SDS011;40985;53.180;5.800;2022-08-19T14:22:22;6.53;;;4.47;;
55090;SDS011;40985;53.180;5.800;2022-08-19T14:24:48;5.55;;;3.92;;
55090;SDS011;40985;53.180;5.800;2022-08-19T14:27:15;3.95;;;3.47;;
55090;SDS011;40985;53.180;5.800;2022-08-19T14:29:40;6.10;;;2.90;;
55090;SDS011;40985;53.180;5.800;2022-08-19T14:32:06;1.33;;;0.98;;
55090;SDS011;40985;53.180;5.800;2022-08-19T14:34:32;1.48;;;1.10;;
55090;SDS011;40985;53.180;5.800;2022-08-19T14:36:58;3.67;;;1.98;;
55090;SDS011;40985;53.180;5.800;2022-08-19T14:39:24;2.35;;;1.55;;
55090;SDS011;40985;53.180;5.800;2022-08-19T14:41:50;3.42;;;1.52;;
55090;SDS011;40985;53.180;5.800;2022-08-19T14:44:16;3.33;;;2.35;;
55090;SDS011;40985;53.180;5.800;2022-08-19T14:46:41;2.63;;;2.05;;
55090;SDS011;40985;53.180;5.800;2022-08-19T14:49:10;1.80;;;1.67;;